AGGH/HIR METAR and TAF weather

Enter ICAO airport designator
Station Type Date Time Source
AGGH METAR 2021/01/22 07:00 UTC NOAA

AGGH 220700Z 36005KT 9999 FEW018 BKN300 30/24 Q1007


Station Type Date Time Source
AGGH Decoded METAR 2021/01/22 07:00 UTC NOAA

Honiara / Henderson, Solomon Islands (AGGH) 09-25S 160-03E 9M
Jan 22, 2021 - 02:00 AM EST / 2021.01.22 0700 UTC
Wind: from the N (360 degrees) at 6 MPH (5 KT):0
Visibility: greater than 7 mile(s):0
Sky conditions: mostly cloudy
Temperature: 86 F (30 C)
Heat index: 95.0 F (35.0 C):1
Dew Point: 75 F (24 C)
Relative Humidity: 70%
Pressure (altimeter): 29.74 in. Hg (1007 hPa)
ob: AGGH 220700Z 36005KT 9999 FEW018 BKN300 30/24 Q1007
cycle: 7

Station Type Date Time Source
AGGH TAF 2021/01/22 06:00 UTC NOAA

TAF AGGH 220510Z 2206/2306 32015KT 9999 SCT018 PROB30 INTER 2206/2210 8000 TSSH SCT014 FEW015CB BKN027 T 30 28 26 24 Q 1006 1008 1009 1007

Example: see airport list